Frederika, Iowa
Current Conditions -  °F | °C
As of 6:15 PM on Wednesday 26 Nov 2014 (Local Time) from KCCY Reporting Station
Light Snow Light Snow  
Wind Chill: -9°   Ceiling: 5500
Heat Index: -4°   Visibility: 6mi
Dew Point: -5°   Wind: 8mph
Humidity: 93%   Direction: 360°N
Pressure: 30.22"   Gusts: NA
Location:  42.88°N, 92.31°W
Report Text: KCCY 270015Z AUTO 36007KT 6SM -SN FEW025 BKN055 OVC070 M04/M05 A3022 RMK AO2
Loading
Personal Weather Stations






























Interactive Weather Map New forecast layout! Learn more

10-Day Weather Forecast

Advertisements
Track Severe Weather on mobile